Time;durP1;ratioP1;P1;durP2;ratioP2;P2;SDS_P1;SDS_P2;PMS_P1;PMS_P2;Temp;Humidity;BMP_temperature;BMP_pressure;BME280_temperature;BME280_humidity;BME280_pressure;Samples;Min_cycle;Max_cycle;Signal;HPM_P1;HPM_P2
2022/05/01 00:01:29;;;;;;;3.33;2.15;;;;;;;;;;4953990;28;20054;-71
2022/05/01 00:03:55;;;;;;;4.00;2.50;;;;;;;;;;4953012;28;20424;-71
2022/05/01 00:06:21;;;;;;;3.42;2.22;;;;;;;;;;4953067;28;20051;-71
2022/05/01 00:08:47;;;;;;;5.53;2.30;;;;;;;;;;4951964;29;20059;-72
2022/05/01 00:11:13;;;;;;;3.00;2.22;;;;;;;;;;4952904;29;20051;-71
2022/05/01 00:13:40;;;;;;;3.67;2.40;;;;;;;;;;4953357;29;20489;-71
2022/05/01 00:16:06;;;;;;;4.70;2.42;;;;;;;;;;4953249;29;20485;-72
2022/05/01 00:18:33;;;;;;;3.25;2.33;;;;;;;;;;4953137;28;20421;-71
2022/05/01 00:20:59;;;;;;;4.00;2.30;;;;;;;;;;4952806;28;20110;-71
2022/05/01 00:23:25;;;;;;;3.70;2.30;;;;;;;;;;4952667;28;20429;-71
2022/05/01 00:25:51;;;;;;;3.65;2.15;;;;;;;;;;4953033;28;20059;-72
2022/05/01 00:28:18;;;;;;;2.90;2.25;;;;;;;;;;4952920;29;20441;-72
2022/05/01 00:30:44;;;;;;;7.65;2.30;;;;;;;;;;4952334;28;20062;-72
2022/05/01 00:38:40;;;;;;;4.50;2.78;;;;;;;;;;4952358;29;20055;-69
2022/05/01 00:41:07;;;;;;;5.72;2.88;;;;;;;;;;4952739;28;20043;-72
2022/05/01 00:43:34;;;;;;;5.45;2.42;;;;;;;;;;4952698;28;20047;-71
2022/05/01 00:46:00;;;;;;;4.97;2.60;;;;;;;;;;4952491;28;20055;-72
2022/05/01 00:48:26;;;;;;;7.65;2.53;;;;;;;;;;4951411;29;20460;-72
2022/05/01 00:50:53;;;;;;;4.20;2.47;;;;;;;;;;4952553;29;20075;-71
2022/05/01 00:53:19;;;;;;;7.90;2.40;;;;;;;;;;4952103;28;20492;-71
2022/05/01 00:55:46;;;;;;;4.15;2.53;;;;;;;;;;4952300;28;20472;-70
2022/05/01 00:58:13;;;;;;;4.55;2.47;;;;;;;;;;4952508;28;20047;-70
2022/05/01 01:00:39;;;;;;;3.88;2.40;;;;;;;;;;4952259;28;20043;-70
2022/05/01 01:03:05;;;;;;;10.15;2.60;;;;;;;;;;4952512;28;20575;-72
2022/05/01 01:05:32;;;;;;;6.38;2.60;;;;;;;;;;4951637;28;20054;-71
2022/05/01 01:08:01;;;;;;;4.35;2.45;;;;;;;;;;4952445;29;20047;-71
2022/05/01 01:10:28;;;;;;;4.60;2.30;;;;;;;;;;4952619;28;20469;-71
2022/05/01 01:12:54;;;;;;;5.28;2.22;;;;;;;;;;4952421;28;20055;-72
2022/05/01 01:15:22;;;;;;;6.43;2.75;;;;;;;;;;4951757;29;20091;-72
2022/05/01 01:17:52;;;;;;;7.90;2.22;;;;;;;;;;4952086;28;20047;-72
2022/05/01 01:20:28;;;;;;;6.38;2.25;;;;;;;;;;4951954;28;20468;-72
2022/05/01 01:22:56;;;;;;;4.20;2.17;;;;;;;;;;4951021;28;20047;-72
2022/05/01 01:25:32;;;;;;;4.72;2.28;;;;;;;;;;4951884;28;20428;-73
2022/05/01 01:28:05;;;;;;;4.40;2.85;;;;;;;;;;4951883;28;20047;-72
2022/05/01 01:33:19;;;;;;;3.88;2.30;;;;;;;;;;4951626;29;20524;-72
2022/05/01 01:35:47;;;;;;;3.80;2.65;;;;;;;;;;4950169;29;20134;-72
2022/05/01 01:38:13;;;;;;;3.33;2.22;;;;;;;;;;4951641;28;20652;-72
2022/05/01 01:40:43;;;;;;;4.05;2.55;;;;;;;;;;4950333;29;20058;-72
2022/05/01 01:43:10;;;;;;;3.22;2.22;;;;;;;;;;4951408;28;20047;-72
2022/05/01 01:45:36;;;;;;;4.32;2.33;;;;;;;;;;4951190;28;20142;-72
2022/05/01 01:48:11;;;;;;;3.25;2.10;;;;;;;;;;4951499;28;20055;-72
2022/05/01 01:50:38;;;;;;;3.53;2.40;;;;;;;;;;4951657;28;20062;-72
2022/05/01 01:53:04;;;;;;;4.03;2.58;;;;;;;;;;4951159;28;20043;-72
2022/05/01 01:55:31;;;;;;;5.45;2.30;;;;;;;;;;4951389;28;20195;-72
2022/05/01 01:57:58;;;;;;;5.38;2.97;;;;;;;;;;4951589;28;20070;-72
2022/05/01 02:00:24;;;;;;;5.75;2.63;;;;;;;;;;4951054;28;20039;-73
2022/05/01 02:02:50;;;;;;;4.90;2.33;;;;;;;;;;4951521;29;20051;-73
2022/05/01 02:05:16;;;;;;;3.65;2.42;;;;;;;;;;4951409;28;20065;-73
2022/05/01 02:07:42;;;;;;;5.53;2.80;;;;;;;;;;4949865;29;20267;-73
2022/05/01 02:10:09;;;;;;;4.65;2.90;;;;;;;;;;4950677;28;20051;-72
2022/05/01 02:12:35;;;;;;;4.70;2.72;;;;;;;;;;4951313;29;20055;-72
2022/05/01 02:15:01;;;;;;;4.93;2.90;;;;;;;;;;4951421;28;20073;-73
2022/05/01 02:17:27;;;;;;;4.88;2.70;;;;;;;;;;4951364;28;20059;-72
2022/05/01 02:19:53;;;;;;;3.63;2.75;;;;;;;;;;4951154;28;20058;-73
2022/05/01 02:22:21;;;;;;;5.13;2.33;;;;;;;;;;4950678;28;20047;-73
2022/05/01 02:24:48;;;;;;;4.45;2.72;;;;;;;;;;4950503;28;20608;-72
2022/05/01 02:27:14;;;;;;;3.67;2.30;;;;;;;;;;4952193;29;20087;-73
2022/05/01 02:29:42;;;;;;;4.75;2.58;;;;;;;;;;4951592;28;20078;-73
2022/05/01 02:32:08;;;;;;;4.85;2.50;;;;;;;;;;4951435;28;20059;-73
2022/05/01 02:34:34;;;;;;;4.72;2.60;;;;;;;;;;4950662;28;20047;-73
2022/05/01 02:37:00;;;;;;;3.63;2.22;;;;;;;;;;4950976;28;20047;-72
2022/05/01 02:39:26;;;;;;;4.68;3.00;;;;;;;;;;4950727;28;20488;-73
2022/05/01 02:41:52;;;;;;;5.47;2.50;;;;;;;;;;4950926;28;20051;-73
2022/05/01 02:44:18;;;;;;;3.42;2.33;;;;;;;;;;4950832;29;20138;-73
2022/05/01 02:46:44;;;;;;;3.67;2.15;;;;;;;;;;4950327;28;20109;-73
2022/05/01 02:49:11;;;;;;;5.50;2.28;;;;;;;;;;4950630;29;20051;-72
2022/05/01 02:51:37;;;;;;;3.72;2.30;;;;;;;;;;4950621;29;20078;-72
2022/05/01 02:54:04;;;;;;;4.13;2.45;;;;;;;;;;4950308;28;20094;-71
2022/05/01 02:56:30;;;;;;;3.35;2.22;;;;;;;;;;4950645;28;20091;-71
2022/05/01 02:58:57;;;;;;;3.45;2.33;;;;;;;;;;4950294;28;20127;-72
2022/05/01 03:01:23;;;;;;;7.25;2.58;;;;;;;;;;4949253;28;20051;-72
2022/05/01 03:03:50;;;;;;;3.83;2.35;;;;;;;;;;4949253;29;20083;-71
2022/05/01 03:06:16;;;;;;;6.70;2.30;;;;;;;;;;4950468;28;20051;-72
2022/05/01 03:08:42;;;;;;;3.33;2.20;;;;;;;;;;4950742;29;20047;-71
2022/05/01 03:11:08;;;;;;;4.88;2.75;;;;;;;;;;4950740;28;20528;-72
2022/05/01 03:13:34;;;;;;;4.43;2.55;;;;;;;;;;4950075;28;20044;-72
2022/05/01 03:16:00;;;;;;;3.72;2.50;;;;;;;;;;4950542;28;20043;-71
2022/05/01 03:23:56;;;;;;;2.95;2.20;;;;;;;;;;4949735;29;20059;-72
2022/05/01 03:26:22;;;;;;;6.22;2.30;;;;;;;;;;4950312;29;20058;-70
2022/05/01 03:28:48;;;;;;;12.52;2.80;;;;;;;;;;4950245;28;20253;-71
2022/05/01 03:31:15;;;;;;;4.20;2.40;;;;;;;;;;4949896;28;20118;-71
2022/05/01 03:33:42;;;;;;;4.22;2.33;;;;;;;;;;4950210;28;20066;-72
2022/05/01 03:36:09;;;;;;;2.85;2.30;;;;;;;;;;4948912;28;20413;-72
2022/05/01 03:38:38;;;;;;;4.18;2.25;;;;;;;;;;4953062;29;20067;-73
2022/05/01 03:41:05;;;;;;;3.92;2.25;;;;;;;;;;4953946;28;20070;-73
2022/05/01 03:43:35;;;;;;;4.28;2.40;;;;;;;;;;4953655;28;20043;-72
2022/05/01 03:46:01;;;;;;;4.03;2.35;;;;;;;;;;4953425;28;20074;-72
2022/05/01 03:48:27;;;;;;;4.10;2.10;;;;;;;;;;4952309;29;20059;-73
2022/05/01 03:50:54;;;;;;;3.78;2.22;;;;;;;;;;4952211;29;20035;-72
2022/05/01 03:53:21;;;;;;;3.08;2.20;;;;;;;;;;4953626;28;20058;-72
2022/05/01 03:55:48;;;;;;;5.07;2.35;;;;;;;;;;4952178;29;20055;-71
2022/05/01 03:58:14;;;;;;;3.47;2.30;;;;;;;;;;4953385;28;20039;-72
2022/05/01 04:00:44;;;;;;;4.38;2.05;;;;;;;;;;4953183;28;20059;-71
2022/05/01 04:03:10;;;;;;;3.28;2.42;;;;;;;;;;4953513;28;20054;-72
2022/05/01 04:05:36;;;;;;;4.00;2.40;;;;;;;;;;4953151;28;20070;-71
2022/05/01 04:08:02;;;;;;;3.35;2.20;;;;;;;;;;4953107;28;20516;-72
2022/05/01 04:10:28;;;;;;;3.38;2.20;;;;;;;;;;4953040;29;20110;-72
2022/05/01 04:12:55;;;;;;;3.42;2.00;;;;;;;;;;4953426;28;20493;-72
2022/05/01 04:15:22;;;;;;;6.75;3.47;;;;;;;;;;4953040;28;20047;-72
2022/05/01 04:17:49;;;;;;;6.95;2.58;;;;;;;;;;4952085;29;20088;-71
2022/05/01 04:20:16;;;;;;;5.10;2.40;;;;;;;;;;4953700;29;20488;-72
2022/05/01 04:22:43;;;;;;;4.30;2.53;;;;;;;;;;4953067;28;20047;-72
2022/05/01 04:25:16;;;;;;;4.53;2.67;;;;;;;;;;4953417;28;20055;-71
2022/05/01 04:27:46;;;;;;;4.95;2.10;;;;;;;;;;4954114;28;20055;-71
2022/05/01 04:30:12;;;;;;;;;;;;;;;;;;4953746;28;20101;-71
2022/05/01 04:32:49;;;;;;;4.32;2.45;;;;;;;;;;4953440;28;19922;-71
2022/05/01 04:35:20;;;;;;;3.03;2.28;;;;;;;;;;4954825;28;20112;-72
2022/05/01 04:37:46;;;;;;;3.85;2.40;;;;;;;;;;4930631;28;20048;-71
2022/05/01 04:40:14;;;;;;;3.38;2.10;;;;;;;;;;4933994;29;20043;-70
2022/05/01 04:42:41;;;;;;;3.38;2.15;;;;;;;;;;4933796;29;20062;-71
2022/05/01 04:45:07;;;;;;;5.05;2.63;;;;;;;;;;4933716;29;20052;-71
2022/05/01 04:47:34;;;;;;;3.97;2.42;;;;;;;;;;4933013;29;20043;-71
2022/05/01 04:50:00;;;;;;;4.63;2.53;;;;;;;;;;4934071;29;20118;-72
2022/05/01 04:52:26;;;;;;;4.68;2.10;;;;;;;;;;4933019;29;20051;-72
2022/05/01 04:54:55;;;;;;;3.95;2.08;;;;;;;;;;4933766;29;20062;-72
2022/05/01 04:57:21;;;;;;;3.30;2.20;;;;;;;;;;4933526;29;20461;-72
2022/05/01 04:59:48;;;;;;;3.50;2.17;;;;;;;;;;4933505;29;20087;-69
2022/05/01 05:02:14;;;;;;;4.47;2.67;;;;;;;;;;4933085;29;20050;-70
2022/05/01 05:04:40;;;;;;;5.50;2.47;;;;;;;;;;4933372;29;20054;-70
2022/05/01 05:07:07;;;;;;;3.90;2.30;;;;;;;;;;4933420;29;20048;-70
2022/05/01 05:12:17;;;;;;;5.15;2.20;;;;;;;;;;4933245;29;20056;-70
2022/05/01 05:14:43;;;;;;;5.60;2.53;;;;;;;;;;4932805;29;20040;-69
2022/05/01 05:17:10;;;;;;;5.47;2.78;;;;;;;;;;4933519;29;20048;-69
2022/05/01 05:19:37;;;;;;;5.13;2.63;;;;;;;;;;4933086;29;20098;-69
2022/05/01 05:22:03;;;;;;;4.82;2.33;;;;;;;;;;4947841;28;20621;-70
2022/05/01 05:24:30;;;;;;;6.00;2.50;;;;;;;;;;4931736;29;20056;-70
2022/05/01 05:26:56;;;;;;;4.03;2.50;;;;;;;;;;4932739;29;20095;-70
2022/05/01 05:29:23;;;;;;;4.75;2.15;;;;;;;;;;4932716;29;20164;-70
2022/05/01 05:31:49;;;;;;;3.83;2.25;;;;;;;;;;4932984;29;20044;-71
2022/05/01 05:34:15;;;;;;;3.70;2.78;;;;;;;;;;4932820;29;20054;-70
2022/05/01 05:36:41;;;;;;;4.22;2.10;;;;;;;;;;4932744;29;20410;-70
2022/05/01 05:39:07;;;;;;;3.38;1.95;;;;;;;;;;4925809;28;20062;-70
2022/05/01 05:41:33;;;;;;;4.82;2.78;;;;;;;;;;4951928;28;20083;-70
2022/05/01 05:43:59;;;;;;;4.35;2.38;;;;;;;;;;4951686;28;20086;-70
2022/05/01 05:46:25;;;;;;;4.97;2.72;;;;;;;;;;4951729;28;20047;-71
2022/05/01 05:48:51;;;;;;;4.70;2.60;;;;;;;;;;4951066;28;20408;-69
2022/05/01 05:51:17;;;;;;;4.55;2.47;;;;;;;;;;4951659;28;20050;-70
2022/05/01 05:53:43;;;;;;;5.03;2.50;;;;;;;;;;4951301;28;20061;-69
2022/05/01 05:56:09;;;;;;;2.80;2.30;;;;;;;;;;4950380;28;20122;-69
2022/05/01 05:58:35;;;;;;;5.97;2.10;;;;;;;;;;4951193;28;20054;-70
2022/05/01 06:01:02;;;;;;;2.78;2.17;;;;;;;;;;4950645;28;20047;-71
2022/05/01 06:03:28;;;;;;;2.90;2.05;;;;;;;;;;4951185;28;20047;-71
2022/05/01 06:05:54;;;;;;;6.20;2.38;;;;;;;;;;4951593;28;20043;-71
2022/05/01 06:08:20;;;;;;;4.47;2.15;;;;;;;;;;4951463;28;20409;-71
2022/05/01 06:10:46;;;;;;;4.25;2.00;;;;;;;;;;4951233;28;20572;-72
2022/05/01 06:13:12;;;;;;;4.18;2.03;;;;;;;;;;4951242;28;20501;-70
2022/05/01 06:15:38;;;;;;;2.88;2.00;;;;;;;;;;4950843;28;20494;-69
2022/05/01 06:18:04;;;;;;;5.95;2.17;;;;;;;;;;4949998;29;20047;-69
2022/05/01 06:20:30;;;;;;;2.70;1.73;;;;;;;;;;4951276;28;20082;-70
2022/05/01 06:22:56;;;;;;;3.92;2.05;;;;;;;;;;4950981;28;20383;-70
2022/05/01 06:25:23;;;;;;;6.72;2.13;;;;;;;;;;4949310;29;20055;-69
2022/05/01 06:27:49;;;;;;;15.77;2.83;;;;;;;;;;4951081;28;20055;-72
2022/05/01 06:38:02;;;;;;;5.68;2.38;;;;;;;;;;5230338;23;21975;-68
2022/05/01 06:40:28;;;;;;;6.65;2.13;;;;;;;;;;4957370;23;20480;-68
2022/05/01 06:42:55;;;;;;;6.35;2.40;;;;;;;;;;4950297;28;20456;-68
2022/05/01 06:45:21;;;;;;;4.05;2.00;;;;;;;;;;4933099;29;20476;-67
2022/05/01 06:47:47;;;;;;;4.70;2.20;;;;;;;;;;4949364;28;20051;-68
2022/05/01 06:50:13;;;;;;;3.95;2.10;;;;;;;;;;4950439;28;20407;-68
2022/05/01 06:52:39;;;;;;;3.50;2.05;;;;;;;;;;4950000;28;20047;-68
2022/05/01 06:55:05;;;;;;;11.50;2.72;;;;;;;;;;4949980;28;20051;-67
2022/05/01 06:57:31;;;;;;;6.93;2.60;;;;;;;;;;4950256;28;20456;-69
2022/05/01 06:59:57;;;;;;;3.10;1.83;;;;;;;;;;4949774;28;20043;-69
2022/05/01 07:02:23;;;;;;;4.13;2.03;;;;;;;;;;4949896;28;20081;-69
2022/05/01 07:04:50;;;;;;;3.50;2.00;;;;;;;;;;4950350;28;20394;-68
2022/05/01 07:07:16;;;;;;;5.47;2.10;;;;;;;;;;4949829;28;20043;-68
2022/05/01 07:09:42;;;;;;;5.47;2.08;;;;;;;;;;4948965;29;20083;-68
2022/05/01 07:12:10;;;;;;;5.18;1.90;;;;;;;;;;4952837;28;20083;-68
2022/05/01 07:14:38;;;;;;;8.73;2.13;;;;;;;;;;4953568;28;20055;-68
2022/05/01 07:17:04;;;;;;;3.10;1.92;;;;;;;;;;4952565;29;20047;-69
2022/05/01 07:19:30;;;;;;;3.42;1.92;;;;;;;;;;4953665;28;20420;-68
2022/05/01 07:21:56;;;;;;;7.15;1.98;;;;;;;;;;4953769;28;20090;-68
2022/05/01 07:24:22;;;;;;;5.47;2.17;;;;;;;;;;4953838;28;20116;-69
2022/05/01 07:26:48;;;;;;;3.28;1.92;;;;;;;;;;4951762;28;20481;-68
2022/05/01 07:29:14;;;;;;;3.92;1.98;;;;;;;;;;4952318;29;20065;-68
2022/05/01 07:31:42;;;;;;;5.50;1.95;;;;;;;;;;4952213;29;20134;-69
2022/05/01 07:34:09;;;;;;;5.65;2.63;;;;;;;;;;4952854;28;20456;-70
2022/05/01 07:36:35;;;;;;;6.35;2.33;;;;;;;;;;4953262;28;20054;-69
2022/05/01 07:39:01;;;;;;;8.30;2.20;;;;;;;;;;4968455;28;20046;-70
2022/05/01 07:41:27;;;;;;;9.00;2.35;;;;;;;;;;4972547;28;20125;-69
2022/05/01 07:43:55;;;;;;;4.20;2.03;;;;;;;;;;4970931;28;20046;-68
2022/05/01 07:46:22;;;;;;;7.63;3.67;;;;;;;;;;4972428;28;20058;-69
2022/05/01 07:48:48;;;;;;;4.57;2.38;;;;;;;;;;4972527;28;20547;-68
2022/05/01 07:51:18;;;;;;;6.43;2.30;;;;;;;;;;4967278;28;20065;-68
2022/05/01 07:53:44;;;;;;;4.13;2.10;;;;;;;;;;4972404;28;20038;-69
2022/05/01 07:56:10;;;;;;;4.13;2.15;;;;;;;;;;4971719;28;20546;-68
2022/05/01 07:58:36;;;;;;;7.80;2.10;;;;;;;;;;4971060;28;20046;-69
2022/05/01 08:01:03;;;;;;;3.72;1.80;;;;;;;;;;4971184;28;20063;-69
2022/05/01 08:06:15;;;;;;;7.88;2.30;;;;;;;;;;4952937;28;20458;-68
2022/05/01 08:08:41;;;;;;;4.90;2.05;;;;;;;;;;4952881;28;20381;-68
2022/05/01 08:11:08;;;;;;;5.05;2.20;;;;;;;;;;4952780;28;20051;-68
2022/05/01 08:13:34;;;;;;;5.13;2.22;;;;;;;;;;4952685;28;20121;-68
2022/05/01 08:16:01;;;;;;;3.88;1.98;;;;;;;;;;4951522;28;20117;-69
2022/05/01 08:21:12;;;;;;;4.47;2.00;;;;;;;;;;4952907;28;20106;-70
2022/05/01 08:23:39;;;;;;;5.75;2.30;;;;;;;;;;4951501;28;20051;-70
2022/05/01 08:26:06;;;;;;;6.65;2.30;;;;;;;;;;4952839;28;20054;-70
2022/05/01 08:28:33;;;;;;;3.70;1.90;;;;;;;;;;4952653;28;20373;-68
2022/05/01 08:30:59;;;;;;;3.63;2.08;;;;;;;;;;4952795;28;20101;-69
2022/05/01 08:33:25;;;;;;;5.55;2.30;;;;;;;;;;4952530;28;20082;-70
2022/05/01 08:35:51;;;;;;;5.57;2.65;;;;;;;;;;4952243;28;20122;-70
2022/05/01 08:38:17;;;;;;;4.13;2.28;;;;;;;;;;4951416;28;20511;-71
2022/05/01 08:40:46;;;;;;;4.95;1.85;;;;;;;;;;4951307;28;20066;-71
2022/05/01 08:43:16;;;;;;;4.57;2.33;;;;;;;;;;4951803;28;20062;-70
2022/05/01 08:45:49;;;;;;;4.60;2.22;;;;;;;;;;4952527;28;20052;-70
2022/05/01 08:48:36;;;;;;;5.38;2.40;;;;;;;;;;4950863;29;20686;-70
2022/05/01 08:51:02;;;;;;;2.85;1.88;;;;;;;;;;4951445;28;20509;-70
2022/05/01 08:53:29;;;;;;;5.90;2.50;;;;;;;;;;4950905;28;20086;-70
2022/05/01 08:55:56;;;;;;;3.63;2.08;;;;;;;;;;4959164;28;20048;-69
2022/05/01 08:58:23;;;;;;;5.30;2.00;;;;;;;;;;4951732;28;20433;-69
2022/05/01 09:00:51;;;;;;;4.43;2.00;;;;;;;;;;4951704;28;20509;-69
2022/05/01 09:03:18;;;;;;;4.55;2.10;;;;;;;;;;4951957;28;20098;-70
2022/05/01 09:05:44;;;;;;;3.92;1.75;;;;;;;;;;4951611;28;20089;-69
2022/05/01 09:08:10;;;;;;;3.35;2.10;;;;;;;;;;4950622;29;20058;-71
2022/05/01 09:10:36;;;;;;;3.20;2.15;;;;;;;;;;4951673;29;20044;-70
2022/05/01 09:13:03;;;;;;;3.42;1.83;;;;;;;;;;4951185;29;20142;-71
2022/05/01 09:15:37;;;;;;;3.58;1.88;;;;;;;;;;4954091;28;20066;-70
2022/05/01 09:18:05;;;;;;;4.63;1.75;;;;;;;;;;4950601;29;20187;-70
2022/05/01 09:20:32;;;;;;;4.88;2.30;;;;;;;;;;4951463;28;20081;-70
2022/05/01 09:22:58;;;;;;;4.03;2.08;;;;;;;;;;4951602;28;20051;-70
2022/05/01 09:25:28;;;;;;;2.60;1.67;;;;;;;;;;4953812;29;20090;-69
2022/05/01 09:28:01;;;;;;;3.88;1.67;;;;;;;;;;4959558;28;20047;-69
2022/05/01 09:30:33;;;;;;;3.63;2.10;;;;;;;;;;4957516;28;20047;-71
2022/05/01 09:33:00;;;;;;;3.58;1.80;;;;;;;;;;4952123;28;20084;-70
2022/05/01 09:35:29;;;;;;;4.07;2.03;;;;;;;;;;4951502;28;20060;-72
2022/05/01 09:38:14;;;;;;;3.58;2.20;;;;;;;;;;4950156;29;20043;-72
2022/05/01 09:40:40;;;;;;;4.88;2.00;;;;;;;;;;4950732;28;20063;-71
2022/05/01 09:43:07;;;;;;;3.50;1.80;;;;;;;;;;4951313;28;20054;-70
2022/05/01 09:45:34;;;;;;;3.58;1.92;;;;;;;;;;4949794;28;20047;-70
2022/05/01 09:48:00;;;;;;;3.53;2.05;;;;;;;;;;4950917;28;20086;-69
2022/05/01 09:50:40;;;;;;;3.60;1.83;;;;;;;;;;4951056;28;20054;-70
2022/05/01 09:53:06;;;;;;;5.32;2.00;;;;;;;;;;4950569;28;20053;-71
2022/05/01 09:55:32;;;;;;;3.97;1.98;;;;;;;;;;4951105;28;20081;-70
2022/05/01 09:58:02;;;;;;;4.32;1.98;;;;;;;;;;4951091;28;20382;-72
2022/05/01 10:00:35;;;;;;;3.63;2.03;;;;;;;;;;4951016;28;20105;-71
2022/05/01 10:03:21;;;;;;;2.90;1.98;;;;;;;;;;4950994;28;20055;-69
2022/05/01 10:05:50;;;;;;;3.83;1.98;;;;;;;;;;4950654;28;20058;-70
2022/05/01 10:08:18;;;;;;;3.45;1.85;;;;;;;;;;4950673;28;20043;-71
2022/05/01 10:10:45;;;;;;;4.85;2.13;;;;;;;;;;4950583;28;20465;-71
2022/05/01 10:13:12;;;;;;;3.30;2.00;;;;;;;;;;4950667;28;20055;-71
2022/05/01 10:15:38;;;;;;;5.00;1.95;;;;;;;;;;4950601;28;20047;-70
2022/05/01 10:18:04;;;;;;;4.13;1.98;;;;;;;;;;4950690;28;20105;-70
2022/05/01 10:20:31;;;;;;;3.67;2.10;;;;;;;;;;4950223;28;20051;-71
2022/05/01 10:22:57;;;;;;;3.75;2.00;;;;;;;;;;4933518;28;20050;-72
2022/05/01 10:25:23;;;;;;;5.13;2.33;;;;;;;;;;4949313;28;20510;-73
2022/05/01 10:27:54;;;;;;;3.33;2.00;;;;;;;;;;4965122;28;20058;-72
2022/05/01 10:33:11;;;;;;;3.17;2.00;;;;;;;;;;4949692;28;20512;-71
2022/05/01 10:35:57;;;;;;;4.15;2.00;;;;;;;;;;4950379;28;20457;-70
2022/05/01 10:38:27;;;;;;;4.55;1.92;;;;;;;;;;4950247;28;20072;-70
2022/05/01 10:40:55;;;;;;;3.03;1.67;;;;;;;;;;4949089;28;20055;-70
2022/05/01 10:43:24;;;;;;;3.80;2.28;;;;;;;;;;4950341;28;20055;-71
2022/05/01 10:45:51;;;;;;;3.85;1.80;;;;;;;;;;4948138;28;20106;-70
2022/05/01 10:48:28;;;;;;;3.20;1.85;;;;;;;;;;4950297;28;20058;-71
2022/05/01 10:50:54;;;;;;;3.30;2.05;;;;;;;;;;4950200;28;20055;-70
2022/05/01 10:53:21;;;;;;;4.32;2.15;;;;;;;;;;4941455;28;20061;-71
2022/05/01 10:55:52;;;;;;;3.85;1.98;;;;;;;;;;4949637;29;20501;-70
2022/05/01 10:58:19;;;;;;;4.78;2.38;;;;;;;;;;4949606;28;20369;-70
2022/05/01 11:00:46;;;;;;;3.22;1.88;;;;;;;;;;4949388;28;20055;-70
2022/05/01 11:03:29;;;;;;;3.60;2.03;;;;;;;;;;4948826;29;20051;-71
2022/05/01 11:06:15;;;;;;;3.58;2.00;;;;;;;;;;4950204;28;20130;-71
2022/05/01 11:08:41;;;;;;;3.80;1.98;;;;;;;;;;4949726;28;20047;-70
2022/05/01 11:11:11;;;;;;;3.58;1.80;;;;;;;;;;4950104;28;20047;-70
2022/05/01 11:13:41;;;;;;;3.38;1.92;;;;;;;;;;4949786;29;20412;-70
2022/05/01 11:16:08;;;;;;;4.07;1.95;;;;;;;;;;4948543;28;20098;-71
2022/05/01 11:18:35;;;;;;;3.20;1.95;;;;;;;;;;4949738;28;20377;-71
2022/05/01 11:21:28;;;;;;;4.57;2.17;;;;;;;;;;4949331;28;20143;-70
2022/05/01 11:23:59;;;;;;;3.08;1.70;;;;;;;;;;4955960;28;20047;-72
2022/05/01 11:26:26;;;;;;;4.00;2.13;;;;;;;;;;4974029;28;20062;-71
2022/05/01 11:28:52;;;;;;;2.72;1.67;;;;;;;;;;4968800;28;20050;-71
2022/05/01 11:31:36;;;;;;;2.22;1.85;;;;;;;;;;4968254;28;20543;-72
2022/05/01 11:34:23;;;;;;;2.63;1.95;;;;;;;;;;4967722;28;20096;-72
2022/05/01 11:36:58;;;;;;;3.05;1.95;;;;;;;;;;4975069;28;20098;-71
2022/05/01 11:39:56;;;;;;;2.95;1.95;;;;;;;;;;4967289;28;20098;-71
2022/05/01 11:42:25;;;;;;;4.33;2.03;;;;;;;;;;4988460;28;20063;-70
2022/05/01 11:44:52;;;;;;;4.75;1.98;;;;;;;;;;4969155;28;20050;-70
2022/05/01 11:47:22;;;;;;;4.75;2.03;;;;;;;;;;4968658;28;20053;-71
2022/05/01 11:49:48;;;;;;;3.35;2.00;;;;;;;;;;4969202;28;20416;-70
2022/05/01 11:52:16;;;;;;;4.00;2.00;;;;;;;;;;4968140;28;20361;-70
2022/05/01 11:55:12;;;;;;;5.43;1.95;;;;;;;;;;4967533;28;20181;-71
2022/05/01 12:03:05;;;;;;;3.25;1.70;;;;;;;;;;4971961;28;20047;-70
2022/05/01 12:05:32;;;;;;;4.85;2.10;;;;;;;;;;4972053;28;20412;-70
2022/05/01 12:07:59;;;;;;;2.60;1.80;;;;;;;;;;4972221;28;20138;-69
2022/05/01 12:10:25;;;;;;;4.70;2.08;;;;;;;;;;4971981;28;20054;-70
2022/05/01 12:12:51;;;;;;;4.63;1.70;;;;;;;;;;4971612;28;20416;-70
2022/05/01 12:15:17;;;;;;;3.90;2.00;;;;;;;;;;4971801;28;20071;-70
2022/05/01 12:17:44;;;;;;;6.10;2.13;;;;;;;;;;4972236;28;20082;-70
2022/05/01 12:20:10;;;;;;;6.15;2.53;;;;;;;;;;4971955;28;20539;-70
2022/05/01 12:22:39;;;;;;;3.40;2.00;;;;;;;;;;4971785;28;20090;-70
2022/05/01 12:25:11;;;;;;;4.68;1.88;;;;;;;;;;4971594;28;20082;-70
2022/05/01 12:27:40;;;;;;;2.88;1.80;;;;;;;;;;4971692;28;20138;-70
2022/05/01 12:30:07;;;;;;;2.70;1.90;;;;;;;;;;4971987;28;20043;-70
2022/05/01 12:32:34;;;;;;;3.15;1.88;;;;;;;;;;4971520;28;20039;-70
2022/05/01 12:35:01;;;;;;;3.05;1.90;;;;;;;;;;4970915;28;20129;-70
2022/05/01 12:37:32;;;;;;;2.65;1.77;;;;;;;;;;4971571;28;20126;-70
2022/05/01 12:40:12;;;;;;;2.58;1.63;;;;;;;;;;4971102;28;20055;-70
2022/05/01 12:45:39;;;;;;;4.38;1.85;;;;;;;;;;4971698;28;20137;-70
2022/05/01 12:48:09;;;;;;;4.63;2.30;;;;;;;;;;4971291;28;20055;-71
2022/05/01 12:50:37;;;;;;;3.45;1.40;;;;;;;;;;4971142;28;20047;-70
2022/05/01 12:53:21;;;;;;;3.00;1.73;;;;;;;;;;4971623;28;20046;-70
2022/05/01 12:55:48;;;;;;;2.13;1.70;;;;;;;;;;4971627;28;20047;-73
2022/05/01 12:58:14;;;;;;;5.30;1.50;;;;;;;;;;4969496;28;20492;-71
2022/05/01 13:00:47;;;;;;;3.88;1.88;;;;;;;;;;4970058;28;20050;-71
2022/05/01 13:03:29;;;;;;;1.95;1.48;;;;;;;;;;4971308;28;20069;-71
2022/05/01 13:05:55;;;;;;;2.33;1.60;;;;;;;;;;4970382;28;20114;-70
2022/05/01 13:08:21;;;;;;;2.72;1.40;;;;;;;;;;4968904;28;20046;-70
2022/05/01 13:11:06;;;;;;;4.85;1.60;;;;;;;;;;4971202;28;20141;-70
2022/05/01 13:13:44;;;;;;;2.00;1.55;;;;;;;;;;4970792;28;20514;-70
2022/05/01 13:16:11;;;;;;;2.17;1.48;;;;;;;;;;4970710;28;20074;-71
2022/05/01 13:18:37;;;;;;;4.53;1.80;;;;;;;;;;4970648;28;20125;-69
2022/05/01 13:21:03;;;;;;;2.38;1.60;;;;;;;;;;4969815;28;20042;-70
2022/05/01 13:23:29;;;;;;;2.22;1.50;;;;;;;;;;4969953;28;20085;-69
2022/05/01 13:25:55;;;;;;;1.88;1.30;;;;;;;;;;4970240;28;20504;-70
2022/05/01 13:28:21;;;;;;;2.05;1.42;;;;;;;;;;4970646;28;20107;-70
2022/05/01 13:30:47;;;;;;;2.55;1.60;;;;;;;;;;4970857;28;20407;-71
2022/05/01 13:33:13;;;;;;;2.35;1.40;;;;;;;;;;4970410;28;20051;-71
2022/05/01 13:35:39;;;;;;;2.45;1.48;;;;;;;;;;4970647;28;20039;-69
2022/05/01 13:38:06;;;;;;;4.13;1.80;;;;;;;;;;4970290;28;20414;-69
2022/05/01 13:46:01;;;;;;;2.47;1.38;;;;;;;;;;4969955;28;20070;-69
2022/05/01 13:48:28;;;;;;;2.42;1.50;;;;;;;;;;4970451;28;20043;-69
2022/05/01 13:50:55;;;;;;;2.13;1.60;;;;;;;;;;4952043;28;20358;-70
2022/05/01 13:53:21;;;;;;;2.58;1.40;;;;;;;;;;4950793;28;20378;-71
2022/05/01 13:55:47;;;;;;;2.95;1.70;;;;;;;;;;4950966;28;20497;-70
2022/05/01 13:58:13;;;;;;;2.80;1.63;;;;;;;;;;4950411;28;20043;-71
2022/05/01 14:00:39;;;;;;;5.35;2.33;;;;;;;;;;4950890;28;20050;-70
2022/05/01 14:03:07;;;;;;;2.28;1.23;;;;;;;;;;4950893;28;20047;-70
2022/05/01 14:05:34;;;;;;;1.75;1.20;;;;;;;;;;4950985;28;20059;-69
2022/05/01 14:08:01;;;;;;;2.30;1.63;;;;;;;;;;4961342;28;20055;-70
2022/05/01 14:10:27;;;;;;;2.50;1.30;;;;;;;;;;4969442;28;20086;-70
2022/05/01 14:12:53;;;;;;;1.88;1.23;;;;;;;;;;4969426;28;20059;-69
2022/05/01 14:15:19;;;;;;;1.95;1.45;;;;;;;;;;4969736;28;20050;-70
2022/05/01 14:17:45;;;;;;;2.30;1.73;;;;;;;;;;4960513;28;20070;-71
2022/05/01 14:20:12;;;;;;;2.60;1.50;;;;;;;;;;4949874;28;20512;-73
2022/05/01 14:22:43;;;;;;;2.05;1.45;;;;;;;;;;4950363;29;20044;-72
2022/05/01 14:25:09;;;;;;;2.67;1.30;;;;;;;;;;4949973;28;20493;-72
2022/05/01 14:27:35;;;;;;;1.67;1.38;;;;;;;;;;4949011;28;20059;-72
2022/05/01 14:30:01;;;;;;;2.45;1.42;;;;;;;;;;4949319;29;20058;-71
2022/05/01 14:32:35;;;;;;;2.80;1.20;;;;;;;;;;4950238;28;20106;-70
2022/05/01 14:35:03;;;;;;;2.90;1.50;;;;;;;;;;4950486;28;20063;-71
2022/05/01 14:37:37;;;;;;;2.03;1.30;;;;;;;;;;4948926;28;20086;-72
2022/05/01 14:40:05;;;;;;;2.72;1.45;;;;;;;;;;4949783;29;20078;-71
2022/05/01 14:42:32;;;;;;;2.80;1.50;;;;;;;;;;4950374;28;20048;-72
2022/05/01 14:45:05;;;;;;;3.33;1.63;;;;;;;;;;4950446;28;20047;-71
2022/05/01 14:47:35;;;;;;;1.98;1.40;;;;;;;;;;4950205;28;20568;-71
2022/05/01 14:50:02;;;;;;;1.73;1.40;;;;;;;;;;4954697;28;20078;-71
2022/05/01 14:52:30;;;;;;;2.60;1.48;;;;;;;;;;4969421;28;20050;-71
2022/05/01 14:54:57;;;;;;;2.50;1.50;;;;;;;;;;4960527;28;20047;-70
2022/05/01 14:57:24;;;;;;;1.50;1.20;;;;;;;;;;4964847;28;20390;-71
2022/05/01 15:08:22;;;;;;;6.75;2.45;;;;;;;;;;4949876;28;20134;-71
2022/05/01 15:10:48;;;;;;;6.30;1.70;;;;;;;;;;4950325;28;20043;-70
2022/05/01 15:13:15;;;;;;;2.55;1.20;;;;;;;;;;4950249;28;20481;-70
2022/05/01 15:16:01;;;;;;;2.03;1.30;;;;;;;;;;4950278;28;20090;-70
2022/05/01 15:18:58;;;;;;;3.47;1.38;;;;;;;;;;4955991;28;20095;-70
2022/05/01 15:24:16;;;;;;;2.38;1.40;;;;;;;;;;4949932;28;20062;-70
2022/05/01 15:26:42;;;;;;;2.05;1.13;;;;;;;;;;4949733;28;20047;-70
2022/05/01 15:29:08;;;;;;;2.20;1.40;;;;;;;;;;4949314;28;20046;-70
2022/05/01 15:31:36;;;;;;;3.10;1.60;;;;;;;;;;4950581;28;20412;-71
2022/05/01 15:34:06;;;;;;;3.25;1.23;;;;;;;;;;4952476;28;20059;-71
2022/05/01 15:36:38;;;;;;;1.50;1.25;;;;;;;;;;4953501;28;20146;-72
2022/05/01 15:39:05;;;;;;;2.20;1.20;;;;;;;;;;4952882;28;20055;-71
2022/05/01 15:41:31;;;;;;;3.33;1.50;;;;;;;;;;4953056;28;20560;-72
2022/05/01 15:43:59;;;;;;;2.88;1.50;;;;;;;;;;4953638;28;20054;-71
2022/05/01 15:46:31;;;;;;;2.03;1.10;;;;;;;;;;4953187;28;20047;-72